Time;durP1;ratioP1;P1;durP2;ratioP2;P2;SDS_P1;SDS_P2;PMS_P1;PMS_P2;Temp;Humidity;BMP_temperature;BMP_pressure;BME280_temperature;BME280_humidity;BME280_pressure;Samples;Min_cycle;Max_cycle;Signal;HPM_P1;HPM_P2
2022/09/07 00:00:59;;;;;;;6.53;5.13;;;;;;;19.41;64.54;100583.47;5058026;28;20234;-86
2022/09/07 00:03:26;;;;;;;6.73;5.17;;;;;;;19.40;64.55;100587.16;5048113;28;20606;-87
2022/09/07 00:05:53;;;;;;;5.57;5.07;;;;;;;19.38;64.67;100575.69;5045277;28;20288;-86
2022/09/07 00:08:23;;;;;;;7.87;4.77;;;;;;;19.37;64.87;100582.06;5050437;28;20255;-86
2022/09/07 00:10:55;;;;;;;6.57;5.60;;;;;;;19.34;64.90;100587.81;5051248;28;20299;-87
2022/09/07 00:13:23;;;;;;;6.17;5.20;;;;;;;19.34;65.00;100593.22;5056067;28;20212;-86
2022/09/07 00:15:50;;;;;;;6.60;5.90;;;;;;;19.32;64.71;100595.22;5058171;28;20312;-86
2022/09/07 00:18:17;;;;;;;5.37;4.90;;;;;;;19.27;64.74;100591.28;5055579;28;20264;-86
2022/09/07 00:20:45;;;;;;;5.83;5.33;;;;;;;19.25;65.14;100588.72;5054884;28;20308;-86
2022/09/07 00:23:12;;;;;;;5.97;5.37;;;;;;;19.21;65.22;100597.28;5063940;28;20200;-86
2022/09/07 00:25:40;;;;;;;6.43;5.63;;;;;;;19.20;65.29;100591.03;5057016;28;20240;-86
2022/09/07 00:28:08;;;;;;;6.23;5.73;;;;;;;19.15;64.90;100597.91;5052725;28;20296;-87
2022/09/07 00:30:40;;;;;;;6.27;5.63;;;;;;;19.08;65.04;100603.06;5054981;28;20311;-87
2022/09/07 00:33:06;;;;;;;5.90;5.30;;;;;;;19.02;65.04;100599.13;5055159;28;20283;-86
2022/09/07 00:35:33;;;;;;;6.33;5.73;;;;;;;18.95;65.04;100597.19;5054869;28;20307;-87
2022/09/07 00:38:00;;;;;;;6.57;5.93;;;;;;;18.90;65.45;100604.91;5054915;28;20667;-87
2022/09/07 00:40:26;;;;;;;6.70;5.37;;;;;;;18.86;65.91;100595.41;5054994;28;20652;-86
2022/09/07 00:42:54;;;;;;;5.40;4.90;;;;;;;18.82;66.36;100594.84;5054776;28;20744;-86
2022/09/07 00:45:21;;;;;;;7.93;5.63;;;;;;;18.79;66.24;100594.31;5054949;28;20735;-87
2022/09/07 00:47:56;;;;;;;6.07;5.33;;;;;;;18.77;66.52;100590.94;5054325;28;20730;-86
2022/09/07 00:50:27;;;;;;;5.63;5.20;;;;;;;18.76;66.71;100586.53;5050450;28;20231;-87
2022/09/07 00:52:59;;;;;;;8.13;5.73;;;;;;;18.73;66.82;100582.28;5044755;28;20303;-86
2022/09/07 00:55:26;;;;;;;5.70;5.20;;;;;;;18.68;66.84;100580.03;5057465;28;20298;-86
2022/09/07 00:57:56;;;;;;;6.47;5.40;;;;;;;18.63;67.21;100582.31;5054479;28;20286;-86
2022/09/07 01:00:23;;;;;;;7.33;5.13;;;;;;;18.60;67.22;100576.41;5058801;28;20314;-86
2022/09/07 01:02:53;;;;;;;6.63;4.50;;;;;;;18.58;67.55;100579.22;5059796;28;20268;-87
2022/09/07 01:05:26;;;;;;;5.40;5.00;;;;;;;18.55;67.77;100582.19;5064727;28;20642;-87
2022/09/07 01:07:55;;;;;;;5.20;4.70;;;;;;;18.52;67.89;100577.09;5045542;28;20224;-86
2022/09/07 01:10:24;;;;;;;4.90;4.40;;;;;;;18.51;68.14;100572.72;5057645;28;20252;-86
2022/09/07 01:12:51;;;;;;;5.57;5.07;;;;;;;18.49;68.21;100571.16;5057505;28;20726;-85
2022/09/07 01:15:20;;;;;;;6.33;5.23;;;;;;;18.45;68.17;100562.50;5058303;28;20671;-85
2022/09/07 01:18:00;;;;;;;5.83;5.33;;;;;;;18.41;68.32;100558.44;5048608;28;20710;-87
2022/09/07 01:20:48;;;;;;;5.20;4.80;;;;;;;18.39;68.53;100569.38;5055308;28;20237;-86
2022/09/07 01:23:51;;;;;;;5.17;4.43;;;;;;;18.38;68.68;100561.44;5053713;28;20258;-86
2022/09/07 01:26:59;;;;;;;4.67;4.27;;;;;;;18.35;68.75;100559.03;5054130;28;20218;-85
2022/09/07 01:29:32;;;;;;;5.00;4.50;;;;;;;18.36;68.96;100558.88;5047524;28;20224;-84
2022/09/07 01:32:05;;;;;;;4.80;4.20;;;;;;;18.36;69.11;100560.72;5056297;28;20294;-84
2022/09/07 01:34:32;;;;;;;5.27;4.77;;;;;;;18.35;69.24;100557.19;5059070;28;20199;-85
2022/09/07 01:37:09;;;;;;;6.57;4.67;;;;;;;18.36;69.24;100552.63;5058874;28;20239;-85
2022/09/07 01:39:42;;;;;;;4.67;4.03;;;;;;;18.35;69.24;100551.78;5055379;28;20222;-85
2022/09/07 01:42:13;;;;;;;8.43;5.47;;;;;;;18.35;69.39;100542.84;5052646;28;20307;-84
2022/09/07 01:44:46;;;;;;;5.30;4.80;;;;;;;18.33;69.60;100539.44;5055284;28;20205;-85
2022/09/07 01:47:17;;;;;;;5.87;4.90;;;;;;;18.32;69.58;100540.44;5046459;28;20208;-85
2022/09/07 01:49:50;;;;;;;5.53;4.63;;;;;;;18.28;69.63;100545.28;5051112;28;20235;-85
2022/09/07 01:52:23;;;;;;;6.83;5.70;;;;;;;18.24;69.79;100537.66;5053311;28;20222;-85
2022/09/07 01:54:58;;;;;;;6.40;4.87;;;;;;;18.21;70.06;100536.09;5054901;28;20211;-85
2022/09/07 01:57:28;;;;;;;5.40;4.90;;;;;;;18.19;70.26;100537.25;5061055;28;20202;-85
2022/09/07 02:00:02;;;;;;;6.97;5.40;;;;;;;18.15;70.37;100534.00;5044540;28;20239;-85
2022/09/07 02:02:34;;;;;;;7.30;5.50;;;;;;;18.13;70.79;100532.44;5052369;28;20285;-84
2022/09/07 02:05:05;;;;;;;6.13;5.17;;;;;;;18.11;70.82;100527.19;5051927;28;20207;-84
2022/09/07 02:07:39;;;;;;;6.03;5.37;;;;;;;18.09;71.26;100529.22;5040409;28;20251;-85
2022/09/07 02:10:10;;;;;;;6.17;5.27;;;;;;;18.09;71.10;100525.69;5051139;28;20323;-84
2022/09/07 02:12:42;;;;;;;6.03;5.47;;;;;;;18.07;71.31;100522.28;5052342;28;20267;-85
2022/09/07 02:15:14;;;;;;;6.87;6.17;;;;;;;18.04;71.25;100523.41;5061739;28;20206;-85
2022/09/07 02:17:44;;;;;;;6.70;6.10;;;;;;;17.99;71.47;100521.16;5052143;28;20202;-84
2022/09/07 02:20:15;;;;;;;6.10;5.50;;;;;;;17.99;71.51;100523.00;5051622;28;20255;-84
2022/09/07 02:22:45;;;;;;;6.20;5.60;;;;;;;17.95;71.70;100527.84;5052341;28;20290;-84
2022/09/07 02:25:18;;;;;;;6.17;5.73;;;;;;;17.94;71.86;100520.75;5064292;28;20326;-84
2022/09/07 02:27:48;;;;;;;6.40;5.77;;;;;;;17.91;72.04;100522.91;5061568;28;20201;-84
2022/09/07 02:30:17;;;;;;;6.17;5.53;;;;;;;17.91;72.13;100520.22;5053624;28;20234;-85
2022/09/07 02:32:44;;;;;;;6.30;5.80;;;;;;;17.90;72.39;100513.97;5045656;28;20293;-85
2022/09/07 02:35:10;;;;;;;6.83;6.13;;;;;;;17.91;72.46;100522.91;5046842;28;20233;-85
2022/09/07 02:37:38;;;;;;;6.00;5.50;;;;;;;17.93;72.52;100519.03;5051853;28;20273;-85
2022/09/07 02:40:07;;;;;;;9.50;6.93;;;;;;;17.93;72.77;100518.19;5051503;28;20228;-85
2022/09/07 02:42:34;;;;;;;8.03;6.17;;;;;;;17.94;72.74;100518.06;5051620;28;20690;-85
2022/09/07 02:45:05;;;;;;;6.37;5.87;;;;;;;17.95;72.70;100516.22;5050819;28;20212;-85
2022/09/07 02:47:44;;;;;;;7.60;6.10;;;;;;;17.95;72.78;100508.97;5040028;28;20221;-84
2022/09/07 02:50:22;;;;;;;7.67;6.87;;;;;;;17.97;72.81;100503.44;5049189;28;20308;-85
2022/09/07 02:53:00;;;;;;;7.33;6.60;;;;;;;17.94;72.92;100496.50;5052608;28;20286;-85
2022/09/07 02:55:37;;;;;;;7.33;6.63;;;;;;;17.93;72.99;100494.78;5051644;28;20301;-85
2022/09/07 02:58:18;;;;;;;6.73;6.23;;;;;;;17.93;72.95;100493.94;5048171;28;20201;-84
2022/09/07 03:00:52;;;;;;;6.97;6.37;;;;;;;17.91;73.16;100487.88;5050312;28;20229;-84
2022/09/07 03:03:25;;;;;;;7.60;7.00;;;;;;;17.88;73.29;100478.25;5055358;28;20197;-84
2022/09/07 03:05:57;;;;;;;8.07;7.27;;;;;;;17.88;73.64;100485.47;5058702;28;20201;-85
2022/09/07 03:08:26;;;;;;;7.50;6.80;;;;;;;17.86;73.77;100474.84;5047048;28;20253;-84
2022/09/07 03:10:54;;;;;;;8.53;7.80;;;;;;;17.86;73.97;100474.84;5054876;28;20240;-85
2022/09/07 03:13:21;;;;;;;8.90;8.10;;;;;;;17.87;74.42;100483.78;5057312;28;20730;-85
2022/09/07 03:15:48;;;;;;;10.07;9.17;;;;;;;17.89;74.52;100495.25;5052831;28;20222;-84
2022/09/07 03:18:14;;;;;;;10.30;9.33;;;;;;;17.88;74.64;100552.84;5053033;28;20718;-86
2022/09/07 03:20:42;;;;;;;9.20;8.40;;;;;;;17.86;75.19;100624.88;5051529;28;20319;-85
2022/09/07 03:23:09;;;;;;;8.43;7.30;;;;;;;17.87;75.14;100595.09;5053678;28;20243;-85
2022/09/07 03:25:35;;;;;;;6.90;6.20;;;;;;;17.87;75.23;100534.97;5053555;28;20296;-84
2022/09/07 03:28:02;;;;;;;7.20;6.50;;;;;;;17.87;75.27;100538.50;5063769;28;20334;-85
2022/09/07 03:30:29;;;;;;;6.67;6.17;;;;;;;17.88;75.26;100563.63;5054469;28;20250;-85
2022/09/07 03:32:56;;;;;;;11.17;6.03;;;;;;;17.89;75.27;100544.59;5054755;28;20285;-85
2022/09/07 03:35:22;;;;;;;6.33;5.67;;;;;;;17.91;75.56;100539.94;5054830;28;20221;-85
2022/09/07 03:37:50;;;;;;;6.77;6.13;;;;;;;17.92;75.33;100544.28;5052743;28;20242;-84
2022/09/07 03:40:17;;;;;;;6.37;5.47;;;;;;;17.94;75.42;100545.00;5051700;28;20280;-85
2022/09/07 03:42:48;;;;;;;13.50;6.50;;;;;;;17.98;75.46;100538.31;5053213;28;20237;-84
2022/09/07 03:45:15;;;;;;;10.27;7.50;;;;;;;18.02;76.06;100555.91;5052293;28;20206;-83
2022/09/07 03:47:41;;;;;;;14.30;8.50;;;;;;;18.07;76.93;100560.00;5049073;28;20654;-84
2022/09/07 03:50:09;;;;;;;13.43;8.83;;;;;;;18.12;77.62;100563.94;5050919;28;20732;-83
2022/09/07 03:52:36;;;;;;;21.30;10.67;;;;;;;18.19;78.49;100558.81;5055201;28;20298;-84
2022/09/07 03:55:04;;;;;;;11.27;8.03;;;;;;;18.22;78.88;100559.38;5053608;28;20685;-84
2022/09/07 03:57:31;;;;;;;8.97;6.93;;;;;;;18.24;78.64;100564.63;5052319;28;20318;-83
2022/09/07 03:59:58;;;;;;;11.23;7.43;;;;;;;18.23;78.76;100563.78;5058974;28;20261;-83
2022/09/07 04:02:24;;;;;;;10.13;7.27;;;;;;;18.22;78.85;100567.47;5054397;28;20209;-84
2022/09/07 04:04:51;;;;;;;8.80;6.77;;;;;;;18.22;79.33;100563.91;5056881;28;20198;-84
2022/09/07 04:07:18;;;;;;;7.93;7.10;;;;;;;18.25;79.66;100571.72;5061929;28;20200;-84
2022/09/07 04:09:44;;;;;;;7.80;7.00;;;;;;;18.25;80.03;100577.97;5056552;28;20231;-83
2022/09/07 04:12:12;;;;;;;9.30;7.27;;;;;;;18.27;80.41;100564.34;5059597;28;20208;-83
2022/09/07 04:14:39;;;;;;;8.77;7.87;;;;;;;18.29;80.85;100565.84;5052181;28;20776;-84
2022/09/07 04:17:06;;;;;;;8.10;7.37;;;;;;;18.32;81.38;100564.72;5056683;28;20234;-83
2022/09/07 04:19:32;;;;;;;9.30;7.37;;;;;;;18.34;81.74;100551.94;5059118;28;20233;-83
2022/09/07 04:21:59;;;;;;;7.80;7.10;;;;;;;18.34;81.81;100544.69;5058383;28;20237;-83
2022/09/07 04:24:26;;;;;;;10.90;7.50;;;;;;;18.34;81.64;100552.78;5054141;28;20215;-83
2022/09/07 04:26:52;;;;;;;7.90;7.20;;;;;;;18.34;81.58;100558.19;5052758;28;20218;-83
2022/09/07 04:29:20;;;;;;;9.57;7.80;;;;;;;18.33;81.71;100550.22;5068042;28;20702;-85
2022/09/07 04:31:47;;;;;;;8.07;7.37;;;;;;;18.30;81.73;100554.06;5072204;28;20211;-84
2022/09/07 04:34:14;;;;;;;10.37;7.63;;;;;;;18.29;81.71;100551.53;5055196;28;20521;-84
2022/09/07 04:36:40;;;;;;;7.60;6.93;;;;;;;18.28;82.18;100550.66;5064635;28;20269;-83
2022/09/07 04:39:07;;;;;;;7.70;6.93;;;;;;;18.28;82.47;100547.13;5052871;28;20384;-83
2022/09/07 04:41:34;;;;;;;9.20;8.20;;;;;;;18.29;82.84;100548.81;5055135;28;20243;-83
2022/09/07 04:44:02;;;;;;;10.53;8.33;;;;;;;18.29;82.94;100546.13;5054381;28;20207;-83
2022/09/07 04:46:33;;;;;;;10.13;8.33;;;;;;;18.26;83.03;100557.25;5052771;28;20202;-83
2022/09/07 04:49:01;;;;;;;8.57;7.77;;;;;;;18.23;83.02;100561.06;5059204;28;20215;-83
2022/09/07 04:51:30;;;;;;;8.00;7.27;;;;;;;18.19;83.32;100565.06;5059302;28;20269;-83
2022/09/07 04:53:58;;;;;;;8.63;7.83;;;;;;;18.16;83.14;100567.19;5056546;28;20227;-84
2022/09/07 04:56:25;;;;;;;9.03;7.40;;;;;;;18.11;83.55;100556.84;5055544;28;21627;-85
2022/09/07 04:58:52;;;;;;;7.93;7.23;;;;;;;18.09;83.70;100566.97;5060271;28;20668;-83
2022/09/07 05:01:21;;;;;;;9.53;8.53;;;;;;;18.08;84.11;100553.63;5051389;28;21389;-84
2022/09/07 05:03:49;;;;;;;9.07;8.17;;;;;;;18.07;84.09;100562.69;5046650;28;20210;-84
2022/09/07 05:06:18;;;;;;;8.73;7.87;;;;;;;18.06;84.30;100561.00;5043154;28;20213;-83
2022/09/07 05:08:46;;;;;;;11.07;8.63;;;;;;;18.04;84.69;100563.84;5048705;28;20235;-83
2022/09/07 05:11:14;;;;;;;8.87;8.03;;;;;;;18.02;85.22;100566.69;5046851;28;20232;-84
2022/09/07 05:13:41;;;;;;;10.37;9.37;;;;;;;18.01;85.24;100561.44;5050620;28;20260;-84
2022/09/07 05:16:09;;;;;;;9.67;8.67;;;;;;;18.01;85.44;100575.75;5047617;28;20318;-83
2022/09/07 05:18:35;;;;;;;10.50;9.47;;;;;;;18.02;85.83;100565.84;5046784;28;20199;-83
2022/09/07 05:21:10;;;;;;;16.27;9.30;;;;;;;18.00;85.85;100571.38;5051199;28;20275;-84
2022/09/07 05:23:37;;;;;;;10.50;9.10;;;;;;;17.99;86.00;100566.97;5051405;28;20205;-84
2022/09/07 05:26:04;;;;;;;12.13;9.77;;;;;;;17.98;86.21;100581.44;5051811;28;20198;-83
2022/09/07 05:28:31;;;;;;;10.27;9.10;;;;;;;17.97;86.39;100579.75;5049402;28;20857;-85
2022/09/07 05:31:04;;;;;;;10.40;9.37;;;;;;;17.96;86.48;100563.72;5051476;28;20235;-85
2022/09/07 05:33:30;;;;;;;10.93;9.83;;;;;;;17.94;86.99;100563.00;5051100;28;20285;-84
2022/09/07 05:35:57;;;;;;;13.50;10.53;;;;;;;17.95;87.08;100551.22;5049135;28;20233;-85
2022/09/07 05:38:26;;;;;;;11.30;10.20;;;;;;;17.95;87.17;100562.00;5047441;28;20232;-83
2022/09/07 05:40:52;;;;;;;12.33;11.23;;;;;;;17.94;87.16;100558.47;5050368;28;20644;-84
2022/09/07 05:43:20;;;;;;;13.13;11.00;;;;;;;17.94;87.47;100553.06;5050621;28;20258;-84
2022/09/07 05:45:47;;;;;;;12.60;11.07;;;;;;;17.95;87.47;100548.53;5049521;28;20207;-85
2022/09/07 05:48:13;;;;;;;13.33;12.00;;;;;;;17.96;87.47;100542.16;5049261;28;20208;-84
2022/09/07 05:50:49;;;;;;;14.50;11.50;;;;;;;17.96;87.44;100542.16;5050750;28;20313;-83
2022/09/07 05:53:16;;;;;;;13.13;11.73;;;;;;;17.95;87.61;100543.16;5050999;28;20502;-85
2022/09/07 05:55:44;;;;;;;13.07;11.37;;;;;;;17.95;87.88;100526.97;5050932;28;20203;-84
2022/09/07 05:58:10;;;;;;;14.53;11.80;;;;;;;17.93;87.73;100516.34;5053356;28;20213;-84
2022/09/07 06:00:37;;;;;;;12.70;11.40;;;;;;;17.90;87.64;100508.59;5049112;28;20306;-84
2022/09/07 06:03:04;;;;;;;12.17;10.97;;;;;;;17.86;87.63;100499.09;5046771;28;20217;-85
2022/09/07 06:05:31;;;;;;;12.97;11.63;;;;;;;17.83;87.67;100488.59;5052409;28;20206;-84
2022/09/07 06:07:57;;;;;;;12.30;11.03;;;;;;;17.83;87.76;100480.53;5049090;28;20486;-84
2022/09/07 06:10:24;;;;;;;13.43;11.50;;;;;;;17.83;87.91;100474.28;5050691;28;20223;-84
2022/09/07 06:12:53;;;;;;;14.30;12.80;;;;;;;17.83;87.87;100493.16;5050913;28;20202;-83
2022/09/07 06:15:19;;;;;;;13.73;12.43;;;;;;;17.83;88.08;100490.44;5051033;28;20293;-84
2022/09/07 06:17:46;;;;;;;14.50;12.40;;;;;;;17.84;88.54;100500.25;5049820;28;20239;-84
2022/09/07 06:20:12;;;;;;;13.97;12.50;;;;;;;17.87;89.43;100500.78;5048261;28;20224;-84
2022/09/07 06:22:40;;;;;;;15.43;12.17;;;;;;;17.92;89.40;100501.19;5050345;28;20210;-83
2022/09/07 06:25:07;;;;;;;13.23;12.03;;;;;;;17.95;89.59;100497.34;5049151;28;20216;-84
2022/09/07 06:27:34;;;;;;;13.70;12.47;;;;;;;17.95;89.30;100490.09;5051036;28;20242;-84
2022/09/07 06:30:02;;;;;;;13.20;12.00;;;;;;;17.95;89.53;100484.72;5053122;28;20284;-84
2022/09/07 06:32:29;;;;;;;13.33;12.20;;;;;;;17.95;89.66;100486.56;5057245;28;20246;-84
2022/09/07 06:34:55;;;;;;;14.77;12.73;;;;;;;17.96;90.05;100481.03;5054842;28;20197;-84
2022/09/07 06:37:22;;;;;;;13.67;12.37;;;;;;;17.98;89.79;100473.66;5054151;28;20601;-85
2022/09/07 06:39:49;;;;;;;14.47;13.07;;;;;;;17.99;89.90;100472.66;5057047;28;20232;-84
2022/09/07 06:42:15;;;;;;;14.37;12.33;;;;;;;18.03;90.02;100482.16;5049529;28;20210;-84
2022/09/07 06:44:42;;;;;;;14.87;12.43;;;;;;;18.07;90.01;100487.25;5047926;28;20215;-84
2022/09/07 06:47:10;;;;;;;13.27;11.97;;;;;;;18.10;90.20;100487.78;5048885;28;20194;-84
2022/09/07 06:49:37;;;;;;;13.70;12.17;;;;;;;18.13;90.16;100497.41;5049353;28;20234;-84
2022/09/07 06:52:04;;;;;;;12.60;11.30;;;;;;;18.15;90.14;100492.72;5049923;28;20202;-83
2022/09/07 06:54:30;;;;;;;12.93;11.40;;;;;;;18.17;90.11;100486.19;5056885;28;20206;-85
2022/09/07 06:56:57;;;;;;;12.33;11.23;;;;;;;18.20;90.16;100490.44;5062761;28;20318;-84
2022/09/07 06:59:24;;;;;;;12.47;11.27;;;;;;;18.23;90.18;100493.69;5062841;28;20321;-85
2022/09/07 07:01:50;;;;;;;12.20;11.00;;;;;;;18.27;90.11;100488.84;5063730;28;20271;-86
2022/09/07 07:04:18;;;;;;;11.63;10.60;;;;;;;18.31;89.87;100490.22;5061629;28;20259;-85
2022/09/07 07:06:45;;;;;;;12.80;11.47;;;;;;;18.35;89.96;100503.25;5062888;28;20226;-85
2022/09/07 07:09:13;;;;;;;12.97;11.70;;;;;;;18.43;89.98;100518.69;5062122;28;20288;-84
2022/09/07 07:11:39;;;;;;;13.10;11.33;;;;;;;18.52;90.19;100527.72;5061943;28;20298;-85
2022/09/07 07:14:06;;;;;;;12.57;11.07;;;;;;;18.62;90.51;100525.84;5060925;28;20498;-86
2022/09/07 07:16:32;;;;;;;11.93;10.20;;;;;;;18.72;90.19;100522.06;5062668;28;20294;-85
2022/09/07 07:18:59;;;;;;;10.37;9.37;;;;;;;18.80;89.98;100512.38;5066904;28;20314;-85
2022/09/07 07:21:27;;;;;;;10.60;9.50;;;;;;;18.88;89.36;100525.94;5066794;28;20219;-85
2022/09/07 07:23:53;;;;;;;10.13;9.20;;;;;;;18.96;89.05;100534.13;5058861;28;20330;-86
2022/09/07 07:26:25;;;;;;;11.70;10.10;;;;;;;19.07;88.67;100533.88;5056067;28;20207;-85
2022/09/07 07:28:53;;;;;;;10.40;9.37;;;;;;;19.20;88.49;100531.63;5060889;28;20234;-85
2022/09/07 07:31:22;;;;;;;9.80;8.90;;;;;;;19.33;88.13;100531.25;5063575;28;20706;-85
2022/09/07 07:33:49;;;;;;;8.87;8.17;;;;;;;19.45;87.65;100535.41;5064869;28;20290;-86
2022/09/07 07:36:18;;;;;;;9.37;8.50;;;;;;;19.55;86.69;100540.72;5065939;28;20260;-86
2022/09/07 07:38:47;;;;;;;8.67;7.87;;;;;;;19.63;85.69;100538.09;5063571;28;20211;-85
2022/09/07 07:41:15;;;;;;;8.37;7.57;;;;;;;19.73;84.65;100544.22;5066145;28;20298;-86
2022/09/07 07:43:42;;;;;;;8.97;7.43;;;;;;;19.80;83.82;100537.19;5063229;28;20696;-86
2022/09/07 07:46:12;;;;;;;8.73;7.70;;;;;;;19.91;83.30;100542.31;5062403;28;20200;-85
2022/09/07 07:48:38;;;;;;;8.00;7.30;;;;;;;20.00;82.81;100535.97;5060629;28;20292;-86
2022/09/07 07:51:06;;;;;;;7.63;7.00;;;;;;;20.11;82.35;100551.91;5062426;28;20263;-86
2022/09/07 07:53:35;;;;;;;8.17;7.10;;;;;;;20.22;81.72;100555.34;5065208;28;20330;-86
2022/09/07 07:56:05;;;;;;;7.93;7.23;;;;;;;20.31;80.81;100557.06;5060857;28;20269;-86
2022/09/07 07:58:33;;;;;;;9.80;6.60;;;;;;;20.36;80.02;100555.63;5062182;28;20268;-86
2022/09/07 08:01:02;;;;;;;7.50;6.90;;;;;;;20.41;79.34;100555.13;5059802;28;20262;-86
2022/09/07 08:03:29;;;;;;;7.50;6.90;;;;;;;20.45;78.81;100551.06;5059558;28;20630;-85
2022/09/07 08:05:56;;;;;;;7.53;6.83;;;;;;;20.48;78.29;100561.56;5067070;28;20291;-86
2022/09/07 08:08:23;;;;;;;7.47;6.73;;;;;;;20.50;77.89;100562.25;5062424;28;20761;-86
2022/09/07 08:10:50;;;;;;;7.33;6.63;;;;;;;20.54;77.58;100562.78;5061814;28;20249;-86
2022/09/07 08:13:18;;;;;;;7.47;6.77;;;;;;;20.55;77.14;100553.66;5061811;28;20239;-86
2022/09/07 08:15:45;;;;;;;7.37;6.77;;;;;;;20.58;77.04;100554.19;5062072;28;20213;-86
2022/09/07 08:18:12;;;;;;;7.10;6.50;;;;;;;20.63;77.00;100564.50;5062230;28;20290;-86
2022/09/07 08:20:38;;;;;;;7.20;6.60;;;;;;;20.72;76.99;100552.69;5062442;28;20610;-86
2022/09/07 08:23:06;;;;;;;7.17;6.47;;;;;;;20.84;76.58;100547.81;5061532;28;20238;-86
2022/09/07 08:25:33;;;;;;;7.63;6.93;;;;;;;20.95;76.15;100534.81;5060510;28;20744;-86
2022/09/07 08:27:59;;;;;;;9.03;6.83;;;;;;;21.05;76.10;100537.38;5060748;28;20200;-86
2022/09/07 08:30:28;;;;;;;7.33;6.63;;;;;;;21.15;75.45;100538.03;5062508;28;20229;-86
2022/09/07 08:32:54;;;;;;;6.50;5.90;;;;;;;21.26;75.25;100543.19;5062249;28;20631;-86
2022/09/07 08:35:21;;;;;;;7.07;6.27;;;;;;;21.37;74.62;100537.41;5061668;28;20813;-86
2022/09/07 08:37:47;;;;;;;6.07;5.57;;;;;;;21.50;73.97;100536.06;5061922;28;20239;-86
2022/09/07 08:40:16;;;;;;;5.57;5.07;;;;;;;21.62;73.26;100542.81;5060764;28;20221;-87
2022/09/07 08:42:54;;;;;;;6.22;5.63;;;;;;;21.71;72.33;100539.06;5061341;28;20198;-86
2022/09/07 08:45:27;;;;;;;5.55;4.97;;;;;;;21.76;71.62;100544.84;5056579;28;20197;-86
2022/09/07 08:47:55;;;;;;;7.90;4.78;;;;;;;21.90;71.43;100546.84;5061989;28;20598;-87
2022/09/07 08:50:27;;;;;;;6.90;4.88;;;;;;;22.01;70.79;100545.69;5061327;28;20240;-87
2022/09/07 08:52:58;;;;;;;5.38;4.97;;;;;;;22.13;70.13;100547.00;5060342;28;20385;-86
2022/09/07 08:55:28;;;;;;;5.20;4.38;;;;;;;22.26;69.23;100547.28;5061194;28;20190;-86
2022/09/07 08:58:03;;;;;;;4.80;4.40;;;;;;;22.37;68.18;100537.94;5053180;28;20631;-85
2022/09/07 09:00:31;;;;;;;6.70;6.10;;;;;;;22.48;67.27;100537.53;5052773;28;20234;-85
2022/09/07 09:02:59;;;;;;;5.47;4.70;;;;;;;22.64;67.17;100532.00;5051340;28;20208;-85
2022/09/07 09:05:36;;;;;;;5.03;4.43;;;;;;;22.79;66.70;100527.53;5051734;28;20761;-86
2022/09/07 09:08:18;;;;;;;4.38;3.97;;;;;;;22.94;65.73;100537.63;5049737;28;20201;-86
2022/09/07 09:10:54;;;;;;;4.18;3.88;;;;;;;23.07;65.19;100544.19;5051256;28;20620;-86
2022/09/07 09:13:30;;;;;;;6.28;3.72;;;;;;;23.21;64.86;100542.53;5048155;28;20586;-86
2022/09/07 09:16:02;;;;;;;3.45;3.13;;;;;;;23.35;63.44;100539.03;5051178;28;20530;-85
2022/09/07 09:18:40;;;;;;;3.45;3.10;;;;;;;23.48;63.30;100541.13;5052392;28;20243;-85
2022/09/07 09:21:13;;;;;;;4.88;3.50;;;;;;;23.62;62.91;100534.94;5051195;28;20206;-86
2022/09/07 09:23:42;;;;;;;6.95;3.38;;;;;;;23.74;61.78;100538.03;5050416;28;20593;-86
2022/09/07 09:26:14;;;;;;;3.78;3.42;;;;;;;23.81;60.87;100525.41;5042079;28;20204;-86
2022/09/07 09:28:40;;;;;;;4.03;3.65;;;;;;;23.85;60.54;100532.13;5050593;28;20569;-86
2022/09/07 09:31:17;;;;;;;5.13;3.95;;;;;;;23.96;60.74;100531.69;5050471;28;20213;-86
2022/09/07 09:33:46;;;;;;;4.22;3.80;;;;;;;24.07;60.38;100525.75;5049075;28;20197;-85
2022/09/07 09:36:25;;;;;;;4.43;3.15;;;;;;;24.27;60.48;100525.22;5051082;28;20636;-86
2022/09/07 09:38:51;;;;;;;3.38;3.08;;;;;;;24.38;59.50;100527.47;5049764;28;20690;-86
2022/09/07 09:41:18;;;;;;;3.00;2.78;;;;;;;24.48;58.34;100526.16;5049035;28;20640;-86
2022/09/07 09:43:52;;;;;;;4.45;3.38;;;;;;;24.54;57.77;100519.91;5053015;28;20667;-86
2022/09/07 09:46:23;;;;;;;3.88;2.22;;;;;;;24.64;56.74;100525.09;5057460;28;20759;-86
2022/09/07 09:48:56;;;;;;;4.22;2.80;;;;;;;24.72;56.10;100522.22;5057737;28;20225;-86
2022/09/07 09:51:25;;;;;;;4.63;3.55;;;;;;;24.83;55.94;100518.19;5056056;28;20212;-86
2022/09/07 09:53:58;;;;;;;5.35;4.22;;;;;;;24.96;56.17;100515.63;5062726;28;20279;-86
2022/09/07 09:56:39;;;;;;;4.30;3.80;;;;;;;25.13;56.71;100510.75;5057845;28;20201;-86
2022/09/07 09:59:20;;;;;;;5.95;3.85;;;;;;;25.16;55.55;100515.81;5050791;28;20224;-86
2022/09/07 10:01:49;;;;;;;5.72;4.05;;;;;;;25.14;55.42;100504.28;5056633;28;20429;-86
2022/09/07 10:04:29;;;;;;;3.90;3.60;;;;;;;25.13;55.62;100508.03;5057844;28;20217;-87
2022/09/07 10:07:06;;;;;;;4.55;4.00;;;;;;;25.15;56.03;100516.84;5056323;28;20205;-86
2022/09/07 10:09:36;;;;;;;3.60;3.30;;;;;;;25.19;55.23;100507.25;5053048;28;20232;-86
2022/09/07 10:12:04;;;;;;;4.10;3.70;;;;;;;25.22;54.94;100502.25;5050185;28;20236;-86
2022/09/07 10:14:33;;;;;;;5.05;3.60;;;;;;;25.28;54.52;100503.34;5031630;28;20209;-86
2022/09/07 10:17:01;;;;;;;3.95;3.58;;;;;;;25.32;54.49;100509.25;5029901;28;20198;-87
2022/09/07 10:19:34;;;;;;;7.00;3.72;;;;;;;25.38;54.07;100513.94;5032051;28;20224;-87
2022/09/07 10:22:02;;;;;;;4.03;3.60;;;;;;;25.42;54.08;100505.16;5027315;28;20217;-86
2022/09/07 10:24:35;;;;;;;3.83;3.53;;;;;;;25.47;54.13;100505.41;5030929;28;20214;-86
2022/09/07 10:27:19;;;;;;;3.58;3.28;;;;;;;25.56;54.32;100506.97;5032085;28;20193;-86
2022/09/07 10:29:46;;;;;;;4.35;2.75;;;;;;;25.63;53.44;100498.84;5029796;28;20648;-86
2022/09/07 10:32:39;;;;;;;4.43;3.28;;;;;;;25.75;52.78;100504.59;5027758;28;20206;-86
2022/09/07 10:35:16;;;;;;;5.50;2.88;;;;;;;25.89;52.04;100500.91;5024708;28;20610;-86
2022/09/07 10:37:52;;;;;;;3.67;2.97;;;;;;;26.03;51.71;100494.50;5027915;28;20232;-85
2022/09/07 10:40:28;;;;;;;4.82;3.03;;;;;;;26.19;51.34;100491.44;5028311;28;20229;-86
2022/09/07 10:43:01;;;;;;;4.70;2.85;;;;;;;26.31;50.66;100497.19;5027313;28;20205;-86
2022/09/07 10:45:37;;;;;;;3.92;2.70;;;;;;;26.37;50.16;100482.72;5024000;28;20206;-86
2022/09/07 10:48:13;;;;;;;3.15;2.88;;;;;;;26.42;50.54;100482.94;5030549;28;20558;-86
2022/09/07 10:50:46;;;;;;;3.85;3.17;;;;;;;26.55;50.76;100482.16;5035724;28;20283;-85
2022/09/07 10:53:35;;;;;;;4.25;3.17;;;;;;;26.67;50.27;100476.94;5031776;28;20210;-86
2022/09/07 10:56:08;;;;;;;4.32;3.05;;;;;;;26.76;49.90;100471.06;5028596;28;20206;-86
2022/09/07 10:58:47;;;;;;;3.75;3.20;;;;;;;26.83;49.64;100469.22;5030551;28;20598;-86
2022/09/07 11:01:24;;;;;;;3.63;3.15;;;;;;;26.88;49.33;100472.16;5030146;28;20198;-86
2022/09/07 11:04:14;;;;;;;3.55;3.20;;;;;;;26.92;49.02;100467.09;5031339;28;20205;-86
2022/09/07 11:06:45;;;;;;;3.47;3.10;;;;;;;26.96;49.37;100477.47;4982169;28;20220;-86
2022/09/07 11:09:40;;;;;;;3.15;2.85;;;;;;;26.99;49.03;100469.91;5027992;28;20244;-86
2022/09/07 11:12:09;;;;;;;3.53;3.22;;;;;;;26.98;48.69;100471.78;5038182;28;20193;-86
2022/09/07 11:14:41;;;;;;;3.42;2.78;;;;;;;27.00;48.78;100471.59;5029745;28;20202;-86
2022/09/07 11:17:14;;;;;;;3.88;3.00;;;;;;;27.00;48.60;100471.59;5037099;28;20580;-86
2022/09/07 11:19:46;;;;;;;3.88;3.20;;;;;;;27.00;48.36;100471.59;5031426;28;20233;-86
2022/09/07 11:22:27;;;;;;;3.33;3.03;;;;;;;27.05;48.96;100469.06;5029239;28;20209;-86
2022/09/07 11:24:58;;;;;;;4.05;3.13;;;;;;;27.11;48.81;100462.75;5031322;28;20245;-86
2022/09/07 11:27:32;;;;;;;3.47;3.20;;;;;;;27.20;49.28;100465.09;5027879;28;20545;-86
2022/09/07 11:30:04;;;;;;;3.75;2.88;;;;;;;27.33;49.61;100460.66;5035258;28;20255;-86
2022/09/07 11:32:34;;;;;;;4.53;3.35;;;;;;;27.45;48.84;100462.53;5027657;28;20197;-86
2022/09/07 11:35:06;;;;;;;4.10;2.72;;;;;;;27.47;48.04;100468.63;5028154;28;20201;-86